Time;durP1;ratioP1;P1;durP2;ratioP2;P2;SDS_P1;SDS_P2;PMS_P1;PMS_P2;Temp;Humidity;BMP_temperature;BMP_pressure;BME280_temperature;BME280_humidity;BME280_pressure;Samples;Min_cycle;Max_cycle;Signal;HPM_P1;HPM_P2
2020/12/06 00:02:08;;;;;;;;;30.00;26.33;;;;;-1.42;43.39;103043.28;4358211;32;8893;-73
2020/12/06 00:05:08;;;;;;;;;18.67;18.67;;;;;-1.74;43.75;103060.06;4358252;32;8900;-73
2020/12/06 00:08:03;;;;;;;;;28.00;27.00;;;;;-1.76;43.88;103056.72;4358377;32;8909;-73
2020/12/06 00:10:59;;;;;;;;;26.67;22.67;;;;;-1.71;43.71;103057.81;4359923;33;8969;-74
2020/12/06 00:13:26;;;;;;;;;36.00;29.67;;;;;-1.71;43.77;103052.38;4361262;32;8944;-73
2020/12/06 00:16:19;;;;;;;;;27.67;26.33;;;;;-1.85;43.89;103055.97;4360389;32;8904;-73
2020/12/06 00:19:14;;;;;;;;;20.33;18.00;;;;;-1.71;43.81;103070.53;4359417;33;8893;-74
2020/12/06 00:22:12;;;;;;;;;22.67;21.67;;;;;-1.90;43.91;103066.56;4359571;33;8917;-73
2020/12/06 00:25:08;;;;;;;;;28.33;22.00;;;;;-1.95;44.14;103066.28;4360144;32;8905;-73
2020/12/06 00:27:50;;;;;;;;;20.33;16.67;;;;;-1.91;44.06;103064.88;4364182;32;8894;-73
2020/12/06 00:30:18;;;;;;;;;18.67;18.67;;;;;-2.04;44.43;103057.41;4370664;32;9529;-73
2020/12/06 00:33:14;;;;;;;;;21.00;21.00;;;;;-1.92;44.57;103065.06;4359277;32;8917;-73
2020/12/06 00:36:10;;;;;;;;;27.00;27.00;;;;;-2.04;44.44;103062.00;4370114;32;8911;-73
2020/12/06 00:39:06;;;;;;;;;31.25;31.25;;;;;-2.14;44.68;103056.87;4374623;32;8919;-73
2020/12/06 00:41:34;;;;;;;;;26.75;24.25;;;;;-2.16;44.41;103056.19;4362090;32;8937;-73
2020/12/06 00:44:29;;;;;;;;;30.25;29.00;;;;;-1.93;44.31;103055.25;4370463;32;8897;-74
2020/12/06 00:47:25;;;;;;;;;28.75;28.00;;;;;-1.99;44.45;103057.69;4359610;32;9567;-73
2020/12/06 00:49:52;;;;;;;;;27.25;24.75;;;;;-2.19;44.54;103055.75;4361096;32;8908;-73
2020/12/06 00:52:49;;;;;;;;;23.75;23.75;;;;;-2.11;44.54;103052.94;4359765;32;9043;-73
2020/12/06 00:55:46;;;;;;;;;38.00;33.50;;;;;-2.24;44.62;103048.16;4364560;32;8883;-74
2020/12/06 00:58:42;;;;;;;;;30.50;24.50;;;;;-1.99;44.62;103046.00;4355111;32;8929;-74
2020/12/06 01:01:11;;;;;;;;;38.50;35.50;;;;;-2.13;44.51;103047.72;4359526;32;8993;-74
2020/12/06 01:04:07;;;;;;;;;32.75;31.00;;;;;-2.17;44.67;103038.25;4348975;33;8905;-74
2020/12/06 01:06:59;;;;;;;;;23.50;22.25;;;;;-2.14;44.60;103035.19;4358815;32;8908;-73
2020/12/06 01:09:31;;;;;;;;;24.75;22.50;;;;;-2.15;44.20;103028.06;4362135;32;8963;-74
2020/12/06 01:12:27;;;;;;;;;26.00;24.25;;;;;-2.20;44.70;103035.09;4363889;32;9040;-74
2020/12/06 01:14:54;;;;;;;;;32.75;26.50;;;;;-2.27;44.39;103035.00;4368049;32;8944;-74
2020/12/06 01:17:22;;;;;;;;;37.00;33.00;;;;;-2.20;44.34;103038.66;4374133;32;8898;-74
2020/12/06 01:20:18;;;;;;;;;31.75;30.25;;;;;-2.11;44.54;103034.78;4373386;32;8950;-74
2020/12/06 01:22:46;;;;;;;;;26.00;21.75;;;;;-2.20;44.54;103037.81;4373982;32;9536;-74
2020/12/06 01:25:42;;;;;;;;;24.00;22.00;;;;;-2.28;44.63;103033.31;4373176;32;8900;-74
2020/12/06 01:28:38;;;;;;;;;29.00;29.00;;;;;-2.42;44.83;103028.75;4372909;32;8891;-74
2020/12/06 01:31:34;;;;;;;;;34.25;27.25;;;;;-2.39;44.87;103031.06;4372520;32;8973;-74
2020/12/06 01:34:30;;;;;;;;;34.75;34.75;;;;;-2.45;44.99;103021.84;4373931;32;8919;-74
2020/12/06 01:37:27;;;;;;;;;50.75;44.00;;;;;-2.19;44.55;103036.78;4374304;32;8896;-74
2020/12/06 01:40:22;;;;;;;;;60.00;45.25;;;;;-2.20;44.59;103030.50;4357238;32;8975;-74
2020/12/06 01:43:18;;;;;;;;;44.75;35.25;;;;;-2.31;44.86;103030.97;4373051;32;8927;-74
2020/12/06 01:46:13;;;;;;;;;45.75;38.25;;;;;-2.10;44.65;103033.75;4373244;32;8915;-74
2020/12/06 01:49:09;;;;;;;;;27.25;23.50;;;;;-2.13;44.69;103033.31;4372977;32;8903;-74
2020/12/06 01:52:07;;;;;;;;;39.75;35.00;;;;;-2.07;44.40;103036.13;4373166;32;8903;-74
2020/12/06 01:55:03;;;;;;;;;59.00;47.00;;;;;-2.30;44.53;103035.34;4370717;32;9676;-73
2020/12/06 01:58:07;;;;;;;;;51.75;43.50;;;;;-2.42;44.71;103029.59;4358849;32;8886;-74
2020/12/06 02:01:02;;;;;;;;;20.00;18.50;;;;;-2.23;44.43;103036.28;4371145;32;8903;-73
2020/12/06 02:03:58;;;;;;;;;33.50;32.25;;;;;-2.37;44.38;103029.03;4372866;32;8989;-73
2020/12/06 02:06:26;;;;;;;;;34.50;33.75;;;;;-2.66;44.86;103032.56;4374218;32;8983;-74
2020/12/06 02:09:08;;;;;;;;;37.00;35.75;;;;;-2.25;44.39;103033.78;4359989;32;9575;-74
2020/12/06 02:12:09;;;;;;;;;40.25;37.50;;;;;-2.57;44.69;103039.59;4357943;32;9032;-74
2020/12/06 02:14:39;;;;;;;;;44.00;42.50;;;;;-2.61;44.65;103040.97;4360345;32;8934;-74
2020/12/06 02:17:34;;;;;;;;;44.75;43.75;;;;;-2.60;44.85;103034.56;4358208;32;8914;-74
2020/12/06 02:20:06;;;;;;;;;37.25;37.25;;;;;-2.35;44.55;103040.53;4359395;32;9015;-74
2020/12/06 02:22:33;;;;;;;;;51.50;45.50;;;;;-2.41;44.37;103036.69;4365191;32;8898;-74
2020/12/06 02:25:28;;;;;;;;;34.75;33.50;;;;;-2.32;44.20;103037.44;4358762;32;9016;-75
2020/12/06 02:28:25;;;;;;;;;62.75;48.50;;;;;-2.45;44.52;103051.66;4370607;32;8903;-74
2020/12/06 02:31:22;;;;;;;;;38.00;33.75;;;;;-2.31;44.24;103050.78;4372368;32;8919;-74
2020/12/06 02:34:18;;;;;;;;;56.75;49.00;;;;;-2.74;44.47;103041.62;4362426;32;9046;-75
2020/12/06 02:37:14;;;;;;;;;57.50;50.00;;;;;-2.75;44.80;103044.53;4368864;32;8939;-73
2020/12/06 02:40:09;;;;;;;;;38.50;35.50;;;;;-2.86;44.90;103043.94;4365114;32;8961;-73
2020/12/06 02:43:05;;;;;;;;;63.25;51.50;;;;;-2.85;44.69;103052.91;4357379;32;8894;-73
2020/12/06 02:46:01;;;;;;;;;42.50;36.00;;;;;-2.77;44.76;103060.94;4361821;32;8933;-73
2020/12/06 02:48:28;;;;;;;;;38.00;37.00;;;;;-2.83;44.88;103056.28;4372567;32;9013;-73
2020/12/06 02:51:24;;;;;;;;;21.50;21.50;;;;;-2.71;44.87;103056.66;4363406;32;8968;-73
2020/12/06 02:54:21;;;;;;;;;13.00;13.00;;;;;-2.82;45.01;103053.41;4353701;32;8994;-73
2020/12/06 02:57:12;;;;;;;;;15.00;14.50;;;;;-2.87;45.12;103057.66;4368626;32;8870;-73
2020/12/06 03:00:04;;;;;;;;;11.50;11.50;;;;;-2.71;44.90;103064.78;4358605;32;8872;-74
2020/12/06 03:02:31;;;;;;;;;18.00;16.50;;;;;-2.78;45.01;103059.25;4358650;32;8936;-74
2020/12/06 03:05:31;;;;;;;;;18.33;15.33;;;;;-2.90;44.79;103071.59;4357441;33;8996;-73
2020/12/06 03:07:58;;;;;;;;;16.00;16.00;;;;;-2.96;44.98;103065.03;4359416;33;8888;-73
2020/12/06 03:10:26;;;;;;;;;20.25;20.25;;;;;-2.71;44.88;103075.62;4358953;32;8912;-74
2020/12/06 03:13:22;;;;;;;;;24.00;22.75;;;;;-2.88;45.09;103061.41;4353966;32;8895;-74
2020/12/06 03:16:18;;;;;;;;;17.00;15.67;;;;;-2.84;44.95;103070.84;4367273;32;8895;-74
2020/12/06 03:19:00;;;;;;;;;18.75;18.75;;;;;-2.88;45.08;103077.66;4355965;32;8996;-74
2020/12/06 03:21:37;;;;;;;;;11.33;10.00;;;;;-2.67;44.72;103083.22;4362157;32;8928;-73
2020/12/06 03:24:33;;;;;;;;;12.67;12.67;;;;;-3.04;45.26;103080.50;4361677;32;8945;-74
2020/12/06 03:27:28;;;;;;;;;12.67;9.67;;;;;-3.07;45.27;103087.09;4369947;32;9034;-74
2020/12/06 03:30:25;;;;;;;;;7.67;7.67;;;;;-3.01;45.49;103089.09;4371459;32;8934;-74
2020/12/06 03:33:21;;;;;;;;;22.50;22.00;;;;;-3.13;45.77;103091.41;4357488;32;8964;-74
2020/12/06 03:36:05;;;;;;;;;18.50;18.50;;;;;-3.26;45.79;103093.88;4357243;32;9047;-74
2020/12/06 03:39:00;;;;;;;;;20.75;20.75;;;;;-3.21;45.81;103093.34;4369391;32;8969;-74
2020/12/06 03:41:57;;;;;;;;;24.75;22.25;;;;;-3.13;45.77;103086.00;4371806;32;8915;-74
2020/12/06 03:44:25;;;;;;;;;19.75;19.75;;;;;-2.91;45.28;103076.16;4361048;32;8902;-74
2020/12/06 03:47:21;;;;;;;;;11.00;11.00;;;;;-3.06;45.60;103082.56;4367937;32;8966;-74
2020/12/06 03:50:17;;;;;;;;;16.00;16.00;;;;;-3.18;45.54;103087.56;4359979;33;8940;-74
2020/12/06 03:53:12;;;;;;;;;20.50;18.75;;;;;-3.23;45.72;103085.38;4359725;32;8951;-75
2020/12/06 03:55:40;;;;;;;;;14.50;14.50;;;;;-3.26;45.56;103079.50;4361780;32;8900;-74
2020/12/06 03:58:36;;;;;;;;;20.50;18.75;;;;;-3.27;45.62;103081.38;4354675;32;9607;-75
2020/12/06 04:01:31;;;;;;;;;31.00;28.00;;;;;-3.16;45.47;103080.09;4374929;32;9602;-75
2020/12/06 04:04:27;;;;;;;;;20.00;20.00;;;;;-3.18;45.45;103074.84;4360853;32;9535;-75
2020/12/06 04:07:22;;;;;;;;;2.50;1.00;;;;;-3.19;45.47;103080.47;4365381;32;8895;-75
2020/12/06 04:10:20;;;;;;;;;21.50;20.25;;;;;-3.29;45.44;103080.72;4373176;32;8906;-75
2020/12/06 04:12:48;;;;;;;;;24.25;23.50;;;;;-3.17;45.12;103078.41;4373454;32;8924;-74
2020/12/06 04:15:44;;;;;;;;;15.75;15.50;;;;;-3.28;45.24;103090.50;4351448;33;9025;-75
2020/12/06 04:18:11;;;;;;;;;4.50;3.25;;;;;-3.12;45.25;103082.25;4371664;32;8964;-74
2020/12/06 04:21:11;;;;;;;;;22.00;21.25;;;;;-3.37;45.24;103088.88;4364082;32;8911;-74
2020/12/06 04:23:39;;;;;;;;;13.00;13.00;;;;;-3.28;45.52;103090.50;4360065;32;9554;-75
2020/12/06 04:26:35;;;;;;;;;14.75;13.00;;;;;-3.37;45.54;103092.44;4365435;32;8899;-74
2020/12/06 04:29:30;;;;;;;;;14.00;14.00;;;;;-3.34;45.48;103079.56;4364676;32;8912;-75
2020/12/06 04:32:26;;;;;;;;;5.25;5.25;;;;;-3.39;45.91;103080.09;4362797;32;9585;-75
2020/12/06 04:35:22;;;;;;;;;15.25;12.00;;;;;-3.52;45.86;103077.16;4364271;32;9651;-74
2020/12/06 04:37:53;;;;;;;;;18.00;18.00;;;;;-3.37;45.75;103078.91;4366140;32;8988;-75
2020/12/06 04:40:49;;;;;;;;;11.25;11.25;;;;;-3.40;45.59;103075.69;4362426;32;8897;-75
2020/12/06 04:43:45;;;;;;;;;11.75;11.50;;;;;-3.41;45.65;103079.44;4367262;32;8927;-75
2020/12/06 04:46:40;;;;;;;;;10.50;10.50;;;;;-3.60;45.72;103082.59;4367509;32;8925;-75
2020/12/06 04:49:23;;;;;;;;;6.25;6.25;;;;;-3.56;45.60;103094.75;4365573;32;9074;-75
2020/12/06 04:52:22;;;;;;;;;18.25;16.75;;;;;-3.70;45.72;103085.53;4360460;32;8901;-75
2020/12/06 04:55:20;;;;;;;;;12.75;12.75;;;;;-3.58;45.62;103085.97;4363155;32;8903;-75
2020/12/06 04:58:23;;;;;;;;;14.75;14.75;;;;;-3.60;45.66;103083.47;4368495;32;8896;-75
2020/12/06 05:01:20;;;;;;;;;11.00;11.00;;;;;-3.51;45.48;103100.47;4373968;32;9002;-72
2020/12/06 05:04:18;;;;;;;;;22.50;20.50;;;;;-3.58;45.63;103100.34;4374079;32;8965;-75
2020/12/06 05:06:48;;;;;;;;;21.00;20.00;;;;;-3.62;45.75;103098.16;4375729;32;8941;-74
2020/12/06 05:09:36;;;;;;;;;18.75;18.75;;;;;-3.58;45.65;103110.31;4370885;32;8938;-74
2020/12/06 05:12:32;;;;;;;;;12.00;12.00;;;;;-3.60;45.47;103105.09;4366687;32;8927;-74
2020/12/06 05:15:29;;;;;;;;;17.75;17.75;;;;;-3.53;45.42;103110.63;4366865;32;8926;-75
2020/12/06 05:18:26;;;;;;;;;25.75;25.75;;;;;-3.61;45.42;103111.50;4360583;32;9928;-75
2020/12/06 05:21:11;;;;;;;;;27.75;21.50;;;;;-3.56;45.18;103106.41;4366041;32;8927;-75
2020/12/06 05:23:40;;;;;;;;;29.00;28.50;;;;;-3.72;45.14;103115.47;4370229;32;8923;-75
2020/12/06 05:26:36;;;;;;;;;26.00;25.50;;;;;-3.47;45.16;103112.62;4359103;32;8898;-75
2020/12/06 05:29:31;;;;;;;;;24.25;24.25;;;;;-3.45;44.76;103124.09;4364234;32;8963;-75
2020/12/06 05:32:07;;;;;;;;;9.50;6.75;;;;;-3.45;44.61;103122.25;4366411;32;8889;-75
2020/12/06 05:34:34;;;;;;;;;30.25;24.75;;;;;-3.47;44.69;103126.12;4362464;32;8886;-75
2020/12/06 05:37:30;;;;;;;;;20.00;19.25;;;;;-3.50;44.45;103130.06;4363391;32;8968;-75
2020/12/06 05:40:26;;;;;;;;;22.00;22.00;;;;;-3.26;44.07;103128.22;4365936;32;8988;-75
2020/12/06 05:43:07;;;;;;;;;29.25;26.25;;;;;-3.33;43.98;103124.53;4368321;32;8881;-74
2020/12/06 05:46:13;;;;;;;;;18.75;18.00;;;;;-3.27;43.88;103124.66;4359525;32;8972;-74
2020/12/06 05:49:09;;;;;;;;;17.50;17.50;;;;;-3.17;43.63;103117.16;4369776;32;8887;-74
2020/12/06 05:51:39;;;;;;;;;32.25;27.50;;;;;-3.15;43.69;103122.38;4374134;32;8886;-75
2020/12/06 05:54:35;;;;;;;;;16.00;16.00;;;;;-3.03;43.49;103118.22;4373047;32;8914;-75
2020/12/06 05:57:12;;;;;;;;;18.00;18.00;;;;;-3.08;43.36;103118.75;4372347;32;8898;-75
2020/12/06 06:00:10;;;;;;;;;21.25;18.50;;;;;-3.04;43.99;103121.97;4373372;32;8972;-75
2020/12/06 06:03:07;;;;;;;;;23.00;23.00;;;;;-3.25;43.22;103114.50;4361950;32;8897;-75
2020/12/06 06:05:36;;;;;;;;;18.00;17.00;;;;;-3.27;43.70;103116.56;4366096;32;9053;-76
2020/12/06 06:08:35;;;;;;;;;18.50;17.50;;;;;-2.99;43.59;103124.97;4354536;32;9590;-76
2020/12/06 06:11:34;;;;;;;;;23.50;21.50;;;;;-3.10;43.48;103130.81;4347131;32;8885;-75
2020/12/06 06:14:30;;;;;;;;;26.00;24.00;;;;;-3.09;43.18;103114.37;4365455;32;8881;-75
2020/12/06 06:17:28;;;;;;;;;32.50;28.50;;;;;-2.86;43.11;103118.94;4359387;32;8951;-75
2020/12/06 06:20:16;;;;;;;;;26.25;23.00;;;;;-2.90;42.87;103129.31;4366069;32;8947;-75
2020/12/06 06:22:47;;;;;;;;;26.75;26.75;;;;;-2.84;42.72;103115.03;4347320;32;8961;-75
2020/12/06 06:25:17;;;;;;;;;4.00;3.00;;;;;-2.60;46.37;103129.38;4349913;32;9572;-75
2020/12/06 06:27:46;;;;;;;;;21.00;19.50;;;;;-2.28;45.98;103120.06;4371952;32;9042;-75
2020/12/06 06:30:16;;;;;;;;;26.00;25.50;;;;;-2.29;45.87;103121.09;4354278;32;9039;-75
2020/12/06 06:32:44;;;;;;;;;36.75;36.75;;;;;-1.90;43.76;103131.66;4367797;32;8872;-76
2020/12/06 06:35:45;;;;;;;;;34.75;32.00;;;;;-1.64;47.73;103127.59;4371699;32;8899;-75
2020/12/06 06:38:45;;;;;;;;;23.75;21.50;;;;;-1.86;41.39;103123.97;4351339;32;8889;-75
2020/12/06 06:41:40;;;;;;;;;20.67;20.67;;;;;-2.04;44.10;103124.38;4361618;32;8880;-75
2020/12/06 06:44:44;;;;;;;;;30.75;26.50;;;;;-1.81;41.94;103126.97;4355308;32;8906;-78
2020/12/06 06:47:41;;;;;;;;;51.33;41.67;;;;;-0.29;63.72;103120.31;4369233;32;8895;-77
2020/12/06 06:50:37;;;;;;;;;25.00;19.67;;;;;-0.90;53.76;103110.03;4360510;32;8972;-78
2020/12/06 06:53:38;;;;;;;;;33.00;28.00;;;;;-1.04;40.41;103116.38;4359665;32;8917;-76
2020/12/06 06:56:51;;;;;;;;;37.67;37.67;;;;;-1.33;40.25;103111.03;4370925;32;9547;-76
2020/12/06 06:59:49;;;;;;;;;30.00;30.00;;;;;-1.40;40.03;103130.81;4362923;32;8937;-77
2020/12/06 07:02:45;;;;;;;;;18.67;18.67;;;;;-1.44;39.96;103124.09;4362559;32;8903;-75
2020/12/06 07:05:43;;;;;;;;;16.33;14.33;;;;;-1.52;39.99;103107.94;4361292;32;8901;-76
2020/12/06 07:08:15;;;;;;;;;11.33;11.33;;;;;-1.50;40.05;103124.84;4347602;32;9005;-75
2020/12/06 07:11:11;;;;;;;;;11.33;11.33;;;;;-1.57;39.79;103123.94;4359721;32;8936;-75
2020/12/06 07:13:46;;;;;;;;;17.67;17.67;;;;;-1.53;39.59;103119.81;4362195;32;8870;-75
2020/12/06 07:16:42;;;;;;;;;22.00;19.00;;;;;-1.70;39.85;103118.34;4359525;32;8963;-75
2020/12/06 07:19:23;;;;;;;;;23.00;21.00;;;;;-1.74;39.71;103117.91;4368642;32;8936;-75
2020/12/06 07:21:51;;;;;;;;;26.50;23.75;;;;;-1.66;39.82;103114.22;4356478;32;8954;-74
2020/12/06 07:24:19;;;;;;;;;29.67;27.33;;;;;-1.67;39.88;103117.97;4363349;32;8889;-74
2020/12/06 07:27:15;;;;;;;;;40.67;31.67;;;;;-1.60;39.68;103127.03;4367297;32;8883;-74
2020/12/06 07:29:42;;;;;;;;;32.67;27.33;;;;;-1.41;39.32;103112.00;4368687;32;8890;-74
2020/12/06 07:32:39;;;;;;;;;19.67;19.67;;;;;-1.40;39.29;103127.25;4361651;32;8924;-73
2020/12/06 07:35:35;;;;;;;;;27.33;24.00;;;;;-1.58;39.38;103129.56;4353966;32;9022;-74
2020/12/06 07:38:35;;;;;;;;;65.50;48.75;;;;;-1.26;38.77;103129.09;4359529;32;8901;-73
2020/12/06 07:41:24;;;;;;;;;67.75;52.25;;;;;-1.34;38.90;103126.50;4354758;32;8922;-74
2020/12/06 07:43:55;;;;;;;;;29.33;28.67;;;;;-1.11;38.71;103126.31;4366146;32;8963;-74
2020/12/06 07:46:38;;;;;;;;;12.33;12.33;;;;;-0.98;38.40;103131.87;4368508;32;8881;-74
2020/12/06 07:49:54;;;;;;;;;41.67;39.33;;;;;-0.74;38.02;103129.81;4370107;32;8938;-77
2020/12/06 07:52:50;;;;;;;;;20.00;20.00;;;;;2.42;54.66;103127.94;4368124;32;8891;-78
2020/12/06 07:55:45;;;;;;;;;24.67;24.00;;;;;3.33;55.85;103130.31;4371880;32;8915;-78
2020/12/06 07:58:45;;;;;;;;;16.00;16.00;;;;;4.80;54.56;103127.63;4372709;32;8898;-77
2020/12/06 08:01:42;;;;;;;;;27.50;27.25;;;;;6.02;61.47;103122.44;4370445;32;12368;-77
2020/12/06 08:04:38;;;;;;;;;26.75;23.25;;;;;4.02;49.14;103128.41;4373127;32;12448;-76
2020/12/06 08:07:41;;;;;;;;;38.00;36.00;;;;;4.03;45.01;103124.59;4369707;32;12395;-74
2020/12/06 08:10:13;;;;;;;;;23.67;22.00;;;;;2.25;34.46;103118.56;4367872;32;12394;-74
2020/12/06 08:13:12;;;;;;;;;25.33;24.33;;;;;1.65;34.87;103118.72;4371165;32;8915;-75
2020/12/06 08:16:08;;;;;;;;;31.00;29.67;;;;;1.00;35.62;103118.53;4370055;32;8904;-74
2020/12/06 08:19:07;;;;;;;;;25.00;23.00;;;;;1.09;35.40;103114.53;4362650;32;8937;-73
2020/12/06 08:21:43;;;;;;;;;24.33;24.33;;;;;0.56;36.33;103124.50;4360782;32;8984;-73
2020/12/06 08:24:22;;;;;;;;;23.67;22.67;;;;;0.57;36.54;103100.81;4359549;32;9015;-73
2020/12/06 08:26:59;;;;;;;;;38.67;29.33;;;;;0.31;36.75;103118.75;4358625;32;8926;-74
2020/12/06 08:29:55;;;;;;;;;30.67;29.67;;;;;0.42;36.58;103110.00;4364579;32;9588;-73
2020/12/06 08:32:58;;;;;;;;;30.00;27.33;;;;;0.44;36.59;103107.91;4363955;32;9005;-73
2020/12/06 08:35:51;;;;;;;;;19.67;18.00;;;;;0.33;36.54;103105.78;4362925;32;8916;-73
2020/12/06 08:38:38;;;;;;;;;34.67;32.33;;;;;0.51;36.44;103094.31;4346860;33;8963;-74
2020/12/06 08:41:34;;;;;;;;;31.00;27.33;;;;;0.36;36.49;103099.06;4363950;32;8918;-73
2020/12/06 08:44:29;;;;;;;;;25.33;24.00;;;;;0.46;36.32;103096.78;4364535;32;8947;-73
2020/12/06 08:47:27;;;;;;;;;28.00;25.67;;;;;0.29;36.28;103101.78;4359852;32;8901;-73
2020/12/06 08:50:23;;;;;;;;;25.33;21.33;;;;;0.70;36.35;103098.16;4364655;32;8892;-74
2020/12/06 08:53:20;;;;;;;;;17.33;16.33;;;;;0.83;35.70;103084.53;4353215;32;8997;-72
2020/12/06 08:56:05;;;;;;;;;33.00;27.00;;;;;0.62;35.60;103084.72;4371568;32;8922;-73
2020/12/06 08:59:05;;;;;;;;;35.33;28.00;;;;;0.62;35.69;103084.72;4365553;32;8874;-72
2020/12/06 09:01:56;;;;;;;;;18.00;18.00;;;;;1.01;35.16;103092.13;4371233;32;9640;-72
2020/12/06 09:04:53;;;;;;;;;15.33;14.67;;;;;0.99;34.96;103088.72;4362444;32;8911;-73
2020/12/06 09:07:35;;;;;;;;;12.33;12.33;;;;;1.27;34.48;103081.19;4364290;32;8979;-73
2020/12/06 09:10:03;;;;;;;;;18.67;18.67;;;;;1.42;34.22;103075.53;4364997;32;8942;-73
2020/12/06 09:12:33;;;;;;;;;16.00;16.00;;;;;1.32;34.22;103075.97;4366968;32;8973;-73
2020/12/06 09:15:07;;;;;;;;;17.00;17.00;;;;;1.38;34.15;103068.81;4368899;32;9152;-73
2020/12/06 09:18:02;;;;;;;;;19.67;17.00;;;;;1.71;33.87;103074.22;4360565;32;8866;-73
2020/12/06 09:20:59;;;;;;;;;20.00;15.67;;;;;1.36;34.10;103070.91;4368674;32;8895;-71
2020/12/06 09:23:54;;;;;;;;;22.67;21.67;;;;;1.08;33.97;103071.16;4368994;32;8882;-73
2020/12/06 09:26:36;;;;;;;;;22.00;21.00;;;;;1.48;34.06;103063.78;4352103;32;8945;-73
2020/12/06 09:29:32;;;;;;;;;31.00;23.33;;;;;1.39;34.10;103062.31;4363921;32;8998;-73
2020/12/06 09:32:03;;;;;;;;;11.67;11.00;;;;;1.72;33.82;103075.91;4365917;32;8898;-73
2020/12/06 09:34:31;;;;;;;;;11.67;10.00;;;;;1.66;33.69;103068.56;4374283;32;8941;-72
2020/12/06 09:36:59;;;;;;;;;14.00;14.00;;;;;1.55;33.78;103077.41;4359271;32;8905;-73
2020/12/06 09:39:54;;;;;;;;;17.67;15.67;;;;;1.89;33.78;103063.47;4362263;32;9025;-71
2020/12/06 09:42:22;;;;;;;;;19.33;17.67;;;;;1.72;33.59;103067.72;4367427;32;8922;-72
2020/12/06 09:44:49;;;;;;;;;14.67;14.33;;;;;2.00;33.30;103069.31;4366359;32;9538;-72
2020/12/06 09:47:30;;;;;;;;;17.67;17.67;;;;;1.61;33.37;103063.75;4360028;32;8900;-72
2020/12/06 09:49:59;;;;;;;;;9.33;9.33;;;;;1.82;32.88;103062.62;4371497;32;8914;-72
2020/12/06 09:52:54;;;;;;;;;18.00;18.00;;;;;1.85;32.66;103061.38;4353873;32;8909;-72
2020/12/06 09:55:51;;;;;;;;;19.00;16.33;;;;;2.14;32.49;103071.75;4372451;32;8907;-71
2020/12/06 09:58:18;;;;;;;;;2.67;2.00;;;;;2.42;31.74;103065.97;4369250;32;8927;-72
2020/12/06 10:01:14;;;;;;;;;17.00;12.00;;;;;2.59;31.73;103062.72;4365439;32;8992;-73
2020/12/06 10:03:43;;;;;;;;;11.00;9.75;;;;;2.77;30.57;103065.56;4367326;32;12304;-70
2020/12/06 10:06:33;;;;;;;;;16.67;16.67;;;;;2.59;30.91;103070.91;4364116;32;12311;-71
2020/12/06 10:09:02;;;;;;;;;18.00;17.00;;;;;2.79;30.98;103057.97;4359203;32;13102;-71
2020/12/06 10:11:58;;;;;;;;;17.00;17.00;;;;;3.16;30.71;103052.63;4368453;32;12364;-71
2020/12/06 10:14:29;;;;;;;;;29.00;26.00;;;;;3.03;30.33;103054.41;4362124;32;12378;-71
2020/12/06 10:17:25;;;;;;;;;21.75;18.00;;;;;3.32;30.72;103041.94;4363326;32;12999;-71
2020/12/06 10:19:52;;;;;;;;;14.50;14.00;;;;;2.95;30.66;103051.94;4367197;32;12382;-71
2020/12/06 10:22:48;;;;;;;;;20.00;20.00;;;;;2.91;31.06;103050.69;4367005;32;12301;-71
2020/12/06 10:25:19;;;;;;;;;17.75;17.25;;;;;3.33;30.79;103045.53;4359880;32;12333;-71
2020/12/06 10:28:00;;;;;;;;;21.00;20.00;;;;;3.37;30.37;103054.09;4370915;32;12350;-71
2020/12/06 10:30:41;;;;;;;;;16.50;15.00;;;;;3.22;30.71;103046.25;4365769;32;12482;-71
2020/12/06 10:33:10;;;;;;;;;20.33;18.67;;;;;2.90;30.65;103029.91;4368026;32;12297;-71
2020/12/06 10:36:05;;;;;;;;;24.67;18.67;;;;;3.62;30.83;103025.66;4353291;32;12427;-71
2020/12/06 10:39:02;;;;;;;;;29.00;23.25;;;;;3.85;30.39;103027.69;4358629;32;12401;-71
2020/12/06 10:41:37;;;;;;;;;15.75;15.75;;;;;3.70;30.14;103018.19;4358929;32;12325;-73
2020/12/06 10:44:33;;;;;;;;;28.75;27.75;;;;;3.35;30.66;103024.25;4368575;32;12455;-73
2020/12/06 10:47:01;;;;;;;;;25.00;22.33;;;;;4.13;30.74;103016.16;4360239;32;12446;-72
2020/12/06 10:49:30;;;;;;;;;29.67;27.33;;;;;4.07;30.12;103010.81;4364485;32;12357;-72
2020/12/06 10:52:26;;;;;;;;;30.25;29.50;;;;;4.02;30.15;103010.66;4364950;32;12345;-72
2020/12/06 10:55:11;;;;;;;;;21.25;18.50;;;;;4.10;29.99;103013.06;4369665;32;12340;-72
2020/12/06 10:57:54;;;;;;;;;24.75;24.25;;;;;4.33;30.39;103015.91;4366024;32;12995;-71
2020/12/06 11:00:22;;;;;;;;;12.25;12.25;;;;;4.18;30.00;103027.28;4372458;32;12323;-73
2020/12/06 11:02:50;;;;;;;;;23.75;22.75;;;;;4.05;29.89;103007.44;4359804;32;12293;-72
2020/12/06 11:05:18;;;;;;;;;26.50;26.50;;;;;3.94;30.09;102998.09;4372797;32;12457;-72
2020/12/06 11:08:02;;;;;;;;;50.75;40.25;;;;;4.37;30.24;103006.16;4361728;32;12326;-71
2020/12/06 11:10:57;;;;;;;;;31.75;29.25;;;;;4.00;30.56;103002.66;4356877;33;12354;-72
2020/12/06 11:13:54;;;;;;;;;21.00;19.00;;;;;3.92;30.69;103002.97;4347580;33;12422;-71
2020/12/06 11:16:23;;;;;;;;;32.33;32.00;;;;;3.76;30.68;103000.88;4368527;32;12331;-71
2020/12/06 11:19:19;;;;;;;;;29.75;26.75;;;;;3.74;31.19;102995.59;4358440;32;12979;-72
2020/12/06 11:22:14;;;;;;;;;34.00;29.00;;;;;3.86;31.06;102999.25;4366932;32;12571;-72
2020/12/06 11:25:10;;;;;;;;;30.75;28.25;;;;;4.09;30.89;102998.53;4360580;32;13187;-72
2020/12/06 11:28:05;;;;;;;;;40.33;35.00;;;;;4.31;30.52;102996.13;4356434;32;12342;-72
2020/12/06 11:30:47;;;;;;;;;26.33;26.33;;;;;4.67;30.58;103008.00;4356315;32;8937;-72
2020/12/06 11:33:15;;;;;;;;;33.50;31.00;;;;;4.37;30.75;103003.44;4373532;32;12325;-72
2020/12/06 11:35:56;;;;;;;;;38.50;31.25;;;;;4.00;31.15;103013.63;4349577;33;12362;-72
2020/12/06 11:38:32;;;;;;;;;35.50;32.00;;;;;4.41;31.15;103012.00;4362790;32;12414;-72
2020/12/06 11:41:28;;;;;;;;;42.00;35.50;;;;;4.79;30.91;103017.09;4359978;32;12428;-72
2020/12/06 11:44:09;;;;;;;;;34.75;34.75;;;;;4.70;30.84;103016.63;4368944;32;12403;-73
2020/12/06 11:46:51;;;;;;;;;29.00;24.75;;;;;4.97;30.72;103008.78;4356898;32;12397;-72
2020/12/06 11:49:47;;;;;;;;;26.25;26.25;;;;;3.98;32.02;102995.72;4361595;32;12383;-73
2020/12/06 11:52:32;;;;;;;;;29.50;27.25;;;;;4.00;32.58;102988.97;4365660;32;13031;-73
2020/12/06 11:55:27;;;;;;;;;28.50;28.50;;;;;3.86;33.42;102996.53;4371197;32;13000;-73
2020/12/06 11:57:57;;;;;;;;;24.75;24.00;;;;;4.14;32.87;102982.25;4356794;32;12395;-72
2020/12/06 12:00:24;;;;;;;;;26.00;23.00;;;;;3.88;33.54;102983.44;4353966;32;13015;-73
2020/12/06 12:02:52;;;;;;;;;32.33;31.33;;;;;4.12;33.78;102984.38;4367791;32;13257;-72
2020/12/06 12:05:20;;;;;;;;;46.00;40.33;;;;;4.27;33.89;102980.38;4372270;32;12372;-73
2020/12/06 12:07:47;;;;;;;;;33.00;30.50;;;;;4.29;34.26;102991.94;4364513;32;8956;-72
2020/12/06 12:10:17;;;;;;;;;37.33;37.33;;;;;3.76;34.90;102978.97;4369945;32;12464;-72
2020/12/06 12:12:47;;;;;;;;;25.00;24.33;;;;;3.46;35.69;102970.69;4370887;32;12371;-73
2020/12/06 12:15:17;;;;;;;;;36.00;31.00;;;;;3.51;35.69;102979.88;4367145;32;8902;-72
2020/12/06 12:17:48;;;;;;;;;33.67;30.33;;;;;3.17;36.60;102975.81;4369196;32;12343;-72
2020/12/06 12:20:24;;;;;;;;;36.67;31.67;;;;;3.32;36.44;102980.94;4371859;32;8890;-72
2020/12/06 12:22:51;;;;;;;;;22.67;22.67;;;;;3.24;36.60;102979.34;4366778;32;8994;-72
2020/12/06 12:25:33;;;;;;;;;21.00;21.00;;;;;2.96;37.30;102981.69;4369617;32;12338;-72
2020/12/06 12:28:00;;;;;;;;;21.33;21.00;;;;;2.70;37.52;102989.06;4369150;32;12375;-72
2020/12/06 12:30:28;;;;;;;;;15.67;15.67;;;;;2.56;37.92;102997.59;4369661;32;12344;-72
2020/12/06 12:33:23;;;;;;;;;16.33;16.33;;;;;2.32;38.56;102991.03;4366250;32;12451;-72
2020/12/06 12:36:20;;;;;;;;;30.00;30.00;;;;;2.40;38.32;102993.50;4364957;32;12384;-73
2020/12/06 12:38:47;;;;;;;;;39.33;35.33;;;;;2.23;38.35;102983.09;4366620;32;8955;-73
2020/12/06 12:41:14;;;;;;;;;30.00;27.67;;;;;2.49;38.43;102990.28;4360134;32;8967;-72
2020/12/06 12:44:10;;;;;;;;;66.67;54.00;;;;;2.25;38.28;102988.34;4355978;32;9043;-72
2020/12/06 12:46:38;;;;;;;;;23.33;19.67;;;;;2.19;38.51;102995.50;4359803;32;8947;-71
2020/12/06 12:49:06;;;;;;;;;24.67;24.67;;;;;2.28;37.94;103004.25;4369512;32;9021;-72